sensor_id;sensor_type;location;lat;lon;timestamp;pressure;altitude;pressure_sealevel;temperature;humidity
36354;BME280;22383;51.114;13.666;2022-07-17T00:00:04;68475.78;;;11.66;100.00
36354;BME280;22383;51.114;13.666;2022-07-17T00:02:34;68480.53;;;11.66;100.00
36354;BME280;22383;51.114;13.666;2022-07-17T00:05:04;68486.78;;;11.71;100.00
36354;BME280;22383;51.114;13.666;2022-07-17T00:07:34;68483.34;;;11.68;100.00
36354;BME280;22383;51.114;13.666;2022-07-17T00:10:02;68475.03;;;11.63;100.00
36354;BME280;22383;51.114;13.666;2022-07-17T00:12:29;68466.91;;;11.53;100.00
36354;BME280;22383;51.114;13.666;2022-07-17T00:14:57;68464.44;;;11.49;100.00
36354;BME280;22383;51.114;13.666;2022-07-17T00:17:25;68455.94;;;11.48;100.00
36354;BME280;22383;51.114;13.666;2022-07-17T00:19:52;68468.22;;;11.50;100.00
36354;BME280;22383;51.114;13.666;2022-07-17T00:22:19;68456.31;;;11.39;100.00
36354;BME280;22383;51.114;13.666;2022-07-17T00:24:47;68447.03;;;11.35;100.00
36354;BME280;22383;51.114;13.666;2022-07-17T00:27:15;68452.34;;;11.43;100.00
36354;BME280;22383;51.114;13.666;2022-07-17T00:29:42;68462.56;;;11.45;100.00
36354;BME280;22383;51.114;13.666;2022-07-17T00:32:09;68454.81;;;11.40;100.00
36354;BME280;22383;51.114;13.666;2022-07-17T00:34:37;68456.69;;;11.44;100.00
36354;BME280;22383;51.114;13.666;2022-07-17T00:37:04;68444.97;;;11.36;100.00
36354;BME280;22383;51.114;13.666;2022-07-17T00:39:31;68437.00;;;11.29;100.00
36354;BME280;22383;51.114;13.666;2022-07-17T00:41:58;68408.81;;;11.42;100.00
36354;BME280;22383;51.114;13.666;2022-07-17T00:44:26;68452.34;;;11.43;100.00
36354;BME280;22383;51.114;13.666;2022-07-17T00:46:54;68454.41;;;11.42;100.00
36354;BME280;22383;51.114;13.666;2022-07-17T00:49:21;68446.47;;;11.35;100.00
36354;BME280;22383;51.114;13.666;2022-07-17T00:51:49;68432.88;;;11.23;100.00
36354;BME280;22383;51.114;13.666;2022-07-17T00:54:17;68422.84;;;11.16;100.00
36354;BME280;22383;51.114;13.666;2022-07-17T00:56:46;68424.53;;;11.18;100.00
36354;BME280;22383;51.114;13.666;2022-07-17T00:59:15;68422.66;;;11.13;100.00
36354;BME280;22383;51.114;13.666;2022-07-17T01:01:43;68427.00;;;11.15;100.00
36354;BME280;22383;51.114;13.666;2022-07-17T01:04:10;68423.78;;;11.14;100.00
36354;BME280;22383;51.114;13.666;2022-07-17T01:06:37;68422.66;;;11.13;100.00
36354;BME280;22383;51.114;13.666;2022-07-17T01:09:04;68424.16;;;11.12;100.00
36354;BME280;22383;51.114;13.666;2022-07-17T01:11:32;68422.28;;;11.15;100.00
36354;BME280;22383;51.114;13.666;2022-07-17T01:14:00;68413.41;;;11.10;100.00
36354;BME280;22383;51.114;13.666;2022-07-17T01:16:28;68413.03;;;11.05;100.00
36354;BME280;22383;51.114;13.666;2022-07-17T01:18:56;68399.22;;;10.97;100.00
36354;BME280;22383;51.114;13.666;2022-07-17T01:21:23;68387.88;;;10.87;100.00
36354;BME280;22383;51.114;13.666;2022-07-17T01:23:50;68391.84;;;10.83;100.00
36354;BME280;22383;51.114;13.666;2022-07-17T01:26:18;68392.03;;;10.86;100.00
36354;BME280;22383;51.114;13.666;2022-07-17T01:28:45;68385.59;;;10.77;100.00
36354;BME280;22383;51.114;13.666;2022-07-17T01:31:12;68388.44;;;10.80;100.00
36354;BME280;22383;51.114;13.666;2022-07-17T01:33:39;68369.16;;;10.70;100.00
36354;BME280;22383;51.114;13.666;2022-07-17T01:36:07;68366.91;;;10.68;100.00
36354;BME280;22383;51.114;13.666;2022-07-17T01:38:34;68368.97;;;10.67;100.00
36354;BME280;22383;51.114;13.666;2022-07-17T01:41:01;68369.91;;;10.66;100.00
36354;BME280;22383;51.114;13.666;2022-07-17T01:43:29;68372.56;;;10.73;100.00
36354;BME280;22383;51.114;13.666;2022-07-17T01:45:56;68373.50;;;10.71;100.00
36354;BME280;22383;51.114;13.666;2022-07-17T01:48:27;68369.91;;;10.66;100.00
36354;BME280;22383;51.114;13.666;2022-07-17T01:50:57;68368.22;;;10.64;100.00
36354;BME280;22383;51.114;13.666;2022-07-17T01:53:24;68364.44;;;10.63;100.00
36354;BME280;22383;51.114;13.666;2022-07-17T01:55:52;68364.81;;;10.61;100.00
36354;BME280;22383;51.114;13.666;2022-07-17T01:58:19;68364.06;;;10.65;100.00
36354;BME280;22383;51.114;13.666;2022-07-17T02:00:46;68368.03;;;10.69;100.00
36354;BME280;22383;51.114;13.666;2022-07-17T02:03:13;68361.41;;;10.58;100.00
36354;BME280;22383;51.114;13.666;2022-07-17T02:05:41;68353.66;;;10.53;100.00
36354;BME280;22383;51.114;13.666;2022-07-17T02:08:08;68358.94;;;10.60;100.00
36354;BME280;22383;51.114;13.666;2022-07-17T02:10:36;68360.28;;;10.57;100.00
36354;BME280;22383;51.114;13.666;2022-07-17T02:13:03;68361.03;;;10.60;100.00
36354;BME280;22383;51.114;13.666;2022-07-17T02:15:31;68354.25;;;10.54;100.00
36354;BME280;22383;51.114;13.666;2022-07-17T02:17:58;68352.53;;;10.52;100.00
36354;BME280;22383;51.114;13.666;2022-07-17T02:20:26;68369.53;;;10.68;100.00
36354;BME280;22383;51.114;13.666;2022-07-17T02:22:53;68368.22;;;10.64;100.00
36354;BME280;22383;51.114;13.666;2022-07-17T02:25:20;68356.69;;;10.58;100.00
36354;BME280;22383;51.114;13.666;2022-07-17T02:27:49;68352.16;;;10.47;100.00
36354;BME280;22383;51.114;13.666;2022-07-17T02:30:17;68329.28;;;10.31;100.00
36354;BME280;22383;51.114;13.666;2022-07-17T02:32:44;68324.16;;;10.27;100.00
36354;BME280;22383;51.114;13.666;2022-07-17T02:35:12;68332.88;;;10.37;100.00
36354;BME280;22383;51.114;13.666;2022-07-17T02:37:40;68342.53;;;10.38;100.00
36354;BME280;22383;51.114;13.666;2022-07-17T02:40:10;68336.28;;;10.33;100.00
36354;BME280;22383;51.114;13.666;2022-07-17T02:42:38;68318.50;;;10.21;100.00
36354;BME280;22383;51.114;13.666;2022-07-17T02:45:05;68315.84;;;10.14;100.00
36354;BME280;22383;51.114;13.666;2022-07-17T02:47:34;68297.91;;;10.00;100.00
36354;BME280;22383;51.114;13.666;2022-07-17T02:50:04;68293.38;;;9.96;100.00
36354;BME280;22383;51.114;13.666;2022-07-17T02:52:33;68286.75;;;9.93;100.00
36354;BME280;22383;51.114;13.666;2022-07-17T02:55:00;68296.03;;;9.96;100.00
36354;BME280;22383;51.114;13.666;2022-07-17T02:57:28;68282.81;;;9.89;100.00
36354;BME280;22383;51.114;13.666;2022-07-17T02:59:55;68275.22;;;9.80;100.00
36354;BME280;22383;51.114;13.666;2022-07-17T03:02:23;68267.88;;;9.73;100.00
36354;BME280;22383;51.114;13.666;2022-07-17T03:04:50;68269.38;;;9.72;100.00
36354;BME280;22383;51.114;13.666;2022-07-17T03:07:17;68278.06;;;9.82;100.00
36354;BME280;22383;51.114;13.666;2022-07-17T03:09:44;68277.88;;;9.80;100.00
36354;BME280;22383;51.114;13.666;2022-07-17T03:12:11;68285.44;;;9.89;100.00
36354;BME280;22383;51.114;13.666;2022-07-17T03:14:39;68285.44;;;9.89;100.00
36354;BME280;22383;51.114;13.666;2022-07-17T03:17:06;68286.00;;;9.90;100.00
36354;BME280;22383;51.114;13.666;2022-07-17T03:19:34;68286.00;;;9.90;100.00
36354;BME280;22383;51.114;13.666;2022-07-17T03:22:01;68291.66;;;9.95;100.00
36354;BME280;22383;51.114;13.666;2022-07-17T03:24:28;68273.94;;;9.83;100.00
36354;BME280;22383;51.114;13.666;2022-07-17T03:26:56;68251.06;;;9.60;100.00
36354;BME280;22383;51.114;13.666;2022-07-17T03:29:23;68240.50;;;9.53;100.00
36354;BME280;22383;51.114;13.666;2022-07-17T03:31:50;68256.53;;;9.63;100.00
36354;BME280;22383;51.114;13.666;2022-07-17T03:34:18;68257.88;;;9.67;100.00
36354;BME280;22383;51.114;13.666;2022-07-17T03:36:45;68275.59;;;9.78;100.00
36354;BME280;22383;51.114;13.666;2022-07-17T03:39:14;68277.13;;;9.84;100.00
36354;BME280;22383;51.114;13.666;2022-07-17T03:41:41;68287.50;;;9.89;100.00
36354;BME280;22383;51.114;13.666;2022-07-17T03:44:09;68286.00;;;9.90;100.00
36354;BME280;22383;51.114;13.666;2022-07-17T03:46:36;68280.34;;;9.92;100.00
36354;BME280;22383;51.114;13.666;2022-07-17T03:49:03;68276.19;;;9.78;100.00
36354;BME280;22383;51.114;13.666;2022-07-17T03:51:30;68279.22;;;9.83;100.00
36354;BME280;22383;51.114;13.666;2022-07-17T03:53:58;68281.84;;;9.83;100.00
36354;BME280;22383;51.114;13.666;2022-07-17T03:56:25;68283.19;;;9.87;100.00
36354;BME280;22383;51.114;13.666;2022-07-17T03:58:53;68282.03;;;9.86;100.00
36354;BME280;22383;51.114;13.666;2022-07-17T04:01:20;68286.19;;;9.85;100.00
36354;BME280;22383;51.114;13.666;2022-07-17T04:03:48;68281.66;;;9.88;100.00
36354;BME280;22383;51.114;13.666;2022-07-17T04:06:15;68279.56;;;9.89;100.00
36354;BME280;22383;51.114;13.666;2022-07-17T04:08:42;68275.06;;;9.84;100.00
36354;BME280;22383;51.114;13.666;2022-07-17T04:11:10;68276.19;;;9.78;100.00
36354;BME280;22383;51.114;13.666;2022-07-17T04:13:37;68277.50;;;9.82;100.00
36354;BME280;22383;51.114;13.666;2022-07-17T04:16:05;68286.94;;;9.95;100.00
36354;BME280;22383;51.114;13.666;2022-07-17T04:18:34;68296.59;;;10.04;100.00
36354;BME280;22383;51.114;13.666;2022-07-17T04:21:05;68312.09;;;10.13;100.00
36354;BME280;22383;51.114;13.666;2022-07-17T04:23:33;68320.00;;;10.20;100.00
36354;BME280;22383;51.114;13.666;2022-07-17T04:26:01;68329.44;;;10.27;100.00
36354;BME280;22383;51.114;13.666;2022-07-17T04:28:36;68331.94;;;10.31;100.00
36354;BME280;22383;51.114;13.666;2022-07-17T04:31:04;68342.69;;;10.41;100.00
36354;BME280;22383;51.114;13.666;2022-07-17T04:33:31;68349.13;;;10.49;100.00
36354;BME280;22383;51.114;13.666;2022-07-17T04:35:58;68354.97;;;10.50;100.00
36354;BME280;22383;51.114;13.666;2022-07-17T04:38:26;68364.25;;;10.60;100.00
36354;BME280;22383;51.114;13.666;2022-07-17T04:40:53;68368.22;;;10.64;100.00
36354;BME280;22383;51.114;13.666;2022-07-17T04:43:20;68375.59;;;10.71;100.00
36354;BME280;22383;51.114;13.666;2022-07-17T04:45:47;68405.66;;;10.98;100.00
36354;BME280;22383;51.114;13.666;2022-07-17T04:48:19;68442.50;;;11.31;100.00
36354;BME280;22383;51.114;13.666;2022-07-17T04:50:58;68481.84;;;11.69;100.00
36354;BME280;22383;51.114;13.666;2022-07-17T04:53:26;68489.41;;;11.79;100.00
36354;BME280;22383;51.114;13.666;2022-07-17T04:55:53;68475.22;;;11.66;100.00
36354;BME280;22383;51.114;13.666;2022-07-17T04:58:20;68479.00;;;11.67;100.00
36354;BME280;22383;51.114;13.666;2022-07-17T05:00:48;68481.09;;;11.73;100.00
36354;BME280;22383;51.114;13.666;2022-07-17T05:03:15;68498.69;;;11.82;100.00
36354;BME280;22383;51.114;13.666;2022-07-17T05:05:42;68503.63;;;11.91;100.00
36354;BME280;22383;51.114;13.666;2022-07-17T05:08:09;68506.47;;;11.94;100.00
36354;BME280;22383;51.114;13.666;2022-07-17T05:10:37;68523.28;;;12.07;100.00
36354;BME280;22383;51.114;13.666;2022-07-17T05:13:04;68544.69;;;12.24;100.00
36354;BME280;22383;51.114;13.666;2022-07-17T05:15:32;68551.31;;;12.35;100.00
36354;BME280;22383;51.114;13.666;2022-07-17T05:18:07;68581.97;;;12.55;100.00
36354;BME280;22383;51.114;13.666;2022-07-17T05:20:35;68593.50;;;12.68;100.00
36354;BME280;22383;51.114;13.666;2022-07-17T05:23:02;68606.19;;;12.82;100.00
36354;BME280;22383;51.114;13.666;2022-07-17T05:25:30;68613.75;;;12.91;100.00
36354;BME280;22383;51.114;13.666;2022-07-17T05:27:58;68627.22;;;13.01;100.00
36354;BME280;22383;51.114;13.666;2022-07-17T05:30:25;68649.34;;;13.21;100.00
36354;BME280;22383;51.114;13.666;2022-07-17T05:32:53;68665.28;;;13.35;100.00
36354;BME280;22383;51.114;13.666;2022-07-17T05:35:21;68666.03;;;13.38;100.00
36354;BME280;22383;51.114;13.666;2022-07-17T05:37:48;68672.50;;;13.39;100.00
36354;BME280;22383;51.114;13.666;2022-07-17T05:40:16;68703.16;;;13.67;100.00
36354;BME280;22383;51.114;13.666;2022-07-17T05:42:43;68699.94;;;13.67;100.00
36354;BME280;22383;51.114;13.666;2022-07-17T05:45:10;68706.78;;;13.73;100.00
36354;BME280;22383;51.114;13.666;2022-07-17T05:47:37;68702.41;;;13.71;100.00
36354;BME280;22383;51.114;13.666;2022-07-17T05:50:05;68705.25;;;13.74;100.00
36354;BME280;22383;51.114;13.666;2022-07-17T05:52:33;68717.56;;;13.83;100.00
36354;BME280;22383;51.114;13.666;2022-07-17T05:55:00;68737.63;;;14.03;100.00
36354;BME280;22383;51.114;13.666;2022-07-17T05:57:27;68766.28;;;14.24;100.00
36354;BME280;22383;51.114;13.666;2022-07-17T05:59:55;68769.69;;;14.27;100.00
36354;BME280;22383;51.114;13.666;2022-07-17T06:02:22;68778.22;;;14.35;100.00
36354;BME280;22383;51.114;13.666;2022-07-17T06:04:49;68785.78;;;14.44;100.00
36354;BME280;22383;51.114;13.666;2022-07-17T06:07:17;68818.78;;;14.74;100.00
36354;BME280;22383;51.114;13.666;2022-07-17T06:09:44;68832.44;;;14.86;100.00
36354;BME280;22383;51.114;13.666;2022-07-17T06:12:11;68830.16;;;14.84;100.00
36354;BME280;22383;51.114;13.666;2022-07-17T06:14:38;68842.69;;;14.96;100.00
36354;BME280;22383;51.114;13.666;2022-07-17T06:17:06;68859.16;;;15.10;100.00
36354;BME280;22383;51.114;13.666;2022-07-17T06:19:33;68862.59;;;15.13;100.00
36354;BME280;22383;51.114;13.666;2022-07-17T06:22:01;68857.47;;;15.09;100.00
36354;BME280;22383;51.114;13.666;2022-07-17T06:24:28;68877.75;;;15.25;100.00
36354;BME280;22383;51.114;13.666;2022-07-17T06:26:55;68894.66;;;15.38;100.00
36354;BME280;22383;51.114;13.666;2022-07-17T06:29:22;68898.06;;;15.41;100.00
36354;BME280;22383;51.114;13.666;2022-07-17T06:31:50;68877.34;;;15.34;100.00
36354;BME280;22383;51.114;13.666;2022-07-17T06:34:17;68889.34;;;15.38;100.00
36354;BME280;22383;51.114;13.666;2022-07-17T06:36:44;68906.56;;;15.56;100.00
36354;BME280;22383;51.114;13.666;2022-07-17T06:39:11;68902.75;;;15.55;100.00
36354;BME280;22383;51.114;13.666;2022-07-17T06:41:39;68951.94;;;15.94;100.00
36354;BME280;22383;51.114;13.666;2022-07-17T06:44:06;68981.94;;;16.19;100.00
36354;BME280;22383;51.114;13.666;2022-07-17T06:46:33;68986.09;;;16.25;100.00
36354;BME280;22383;51.114;13.666;2022-07-17T06:49:01;68997.84;;;16.40;100.00
36354;BME280;22383;51.114;13.666;2022-07-17T06:51:28;69020.28;;;16.56;100.00
36354;BME280;22383;51.114;13.666;2022-07-17T06:53:56;69008.72;;;16.43;100.00
36354;BME280;22383;51.114;13.666;2022-07-17T06:56:24;69008.47;;;16.48;100.00
36354;BME280;22383;51.114;13.666;2022-07-17T06:58:51;69007.00;;;16.41;100.00
36354;BME280;22383;51.114;13.666;2022-07-17T07:01:18;68999.75;;;16.37;100.00
36354;BME280;22383;51.114;13.666;2022-07-17T07:03:45;69012.47;;;16.51;100.00
36354;BME280;22383;51.114;13.666;2022-07-17T07:06:13;68997.69;;;16.38;100.00
36354;BME280;22383;51.114;13.666;2022-07-17T07:08:40;68997.69;;;16.38;100.00
36354;BME280;22383;51.114;13.666;2022-07-17T07:11:07;68997.31;;;16.33;100.00
36354;BME280;22383;51.114;13.666;2022-07-17T07:13:35;69007.34;;;16.47;100.00
36354;BME280;22383;51.114;13.666;2022-07-17T07:16:03;68968.06;;;16.11;100.00
36354;BME280;22383;51.114;13.666;2022-07-17T07:18:31;68954.97;;;15.99;100.00
36354;BME280;22383;51.114;13.666;2022-07-17T07:20:58;68966.56;;;16.05;100.00
36354;BME280;22383;51.114;13.666;2022-07-17T07:23:26;68969.19;;;16.12;100.00
36354;BME280;22383;51.114;13.666;2022-07-17T07:25:53;68979.28;;;16.19;100.00
36354;BME280;22383;51.114;13.666;2022-07-17T07:28:20;68996.38;;;16.34;100.00
36354;BME280;22383;51.114;13.666;2022-07-17T07:30:48;68970.34;;;16.13;100.00
36354;BME280;22383;51.114;13.666;2022-07-17T07:33:15;68979.09;;;16.16;100.00
36354;BME280;22383;51.114;13.666;2022-07-17T07:35:46;68985.53;;;16.24;100.00
36354;BME280;22383;51.114;13.666;2022-07-17T07:38:13;68998.44;;;16.34;100.00
36354;BME280;22383;51.114;13.666;2022-07-17T07:40:40;69034.50;;;16.69;100.00
36354;BME280;22383;51.114;13.666;2022-07-17T07:43:08;69074.81;;;17.03;100.00
36354;BME280;22383;51.114;13.666;2022-07-17T07:45:35;69079.16;;;17.11;100.00
36354;BME280;22383;51.114;13.666;2022-07-17T07:48:03;69062.25;;;16.91;100.00
36354;BME280;22383;51.114;13.666;2022-07-17T07:50:31;69080.66;;;17.10;100.00
36354;BME280;22383;51.114;13.666;2022-07-17T07:52:58;69110.69;;;17.35;100.00
36354;BME280;22383;51.114;13.666;2022-07-17T07:55:25;69145.81;;;17.71;100.00
36354;BME280;22383;51.114;13.666;2022-07-17T07:58:06;69161.19;;;17.85;100.00
36354;BME280;22383;51.114;13.666;2022-07-17T08:00:34;69136.13;;;17.63;100.00
36354;BME280;22383;51.114;13.666;2022-07-17T08:03:03;69073.63;;;17.09;100.00
36354;BME280;22383;51.114;13.666;2022-07-17T08:05:31;69061.31;;;16.93;100.00
36354;BME280;22383;51.114;13.666;2022-07-17T08:07:58;69034.13;;;16.71;100.00
36354;BME280;22383;51.114;13.666;2022-07-17T08:10:26;69012.47;;;16.51;100.00
36354;BME280;22383;51.114;13.666;2022-07-17T08:12:53;69014.97;;;16.49;100.00
36354;BME280;22383;51.114;13.666;2022-07-17T08:15:21;69011.56;;;16.45;100.00
36354;BME280;22383;51.114;13.666;2022-07-17T08:17:50;69021.41;;;16.57;100.00
36354;BME280;22383;51.114;13.666;2022-07-17T08:20:20;69030.53;;;16.65;100.00
36354;BME280;22383;51.114;13.666;2022-07-17T08:22:48;69048.00;;;16.78;100.00
36354;BME280;22383;51.114;13.666;2022-07-17T08:25:33;69096.44;;;17.22;100.00
36354;BME280;22383;51.114;13.666;2022-07-17T08:28:05;69133.09;;;17.57;100.00
36354;BME280;22383;51.114;13.666;2022-07-17T08:30:33;69128.16;;;17.55;100.00
36354;BME280;22383;51.114;13.666;2022-07-17T08:33:06;69139.19;;;17.61;100.00
36354;BME280;22383;51.114;13.666;2022-07-17T08:35:36;69135.56;;;17.62;100.00
36354;BME280;22383;51.114;13.666;2022-07-17T08:38:04;69166.75;;;17.88;100.00
36354;BME280;22383;51.114;13.666;2022-07-17T08:40:32;69183.69;;;18.01;98.83
36354;BME280;22383;51.114;13.666;2022-07-17T08:43:00;69187.44;;;18.09;96.74
36354;BME280;22383;51.114;13.666;2022-07-17T08:45:28;69183.03;;;18.07;92.38
36354;BME280;22383;51.114;13.666;2022-07-17T08:47:56;69177.75;;;18.00;90.47
36354;BME280;22383;51.114;13.666;2022-07-17T08:50:27;69147.13;;;17.75;90.90
36354;BME280;22383;51.114;13.666;2022-07-17T08:52:56;69167.50;;;17.91;98.39
36354;BME280;22383;51.114;13.666;2022-07-17T08:55:24;69179.47;;;18.02;97.09
36354;BME280;22383;51.114;13.666;2022-07-17T08:57:51;69188.97;;;18.08;99.02
36354;BME280;22383;51.114;13.666;2022-07-17T09:00:20;69227.75;;;18.43;94.82
36354;BME280;22383;51.114;13.666;2022-07-17T09:05:29;69159.66;;;17.86;90.03
36354;BME280;22383;51.114;13.666;2022-07-17T09:07:57;69164.66;;;17.88;94.28
36354;BME280;22383;51.114;13.666;2022-07-17T09:10:34;69142.94;;;17.69;89.95
36354;BME280;22383;51.114;13.666;2022-07-17T09:13:14;69128.72;;;17.56;87.58
36354;BME280;22383;51.114;13.666;2022-07-17T09:15:42;69150.53;;;17.78;87.40
36354;BME280;22383;51.114;13.666;2022-07-17T09:18:12;69184.41;;;18.04;87.02
36354;BME280;22383;51.114;13.666;2022-07-17T09:20:49;69200.94;;;18.19;87.49
36354;BME280;22383;51.114;13.666;2022-07-17T09:23:18;69227.16;;;18.42;86.02
36354;BME280;22383;51.114;13.666;2022-07-17T09:25:48;69246.19;;;18.62;82.63
36354;BME280;22383;51.114;13.666;2022-07-17T09:28:17;69275.13;;;18.85;80.71
36354;BME280;22383;51.114;13.666;2022-07-17T09:30:47;69289.72;;;19.03;77.42
36354;BME280;22383;51.114;13.666;2022-07-17T09:33:20;69323.59;;;19.29;76.85
36354;BME280;22383;51.114;13.666;2022-07-17T09:46:17;69387.16;;;19.89;69.39
36354;BME280;22383;51.114;13.666;2022-07-17T09:48:48;69379.16;;;19.81;68.79
36354;BME280;22383;51.114;13.666;2022-07-17T09:51:21;69324.34;;;19.32;70.48
36354;BME280;22383;51.114;13.666;2022-07-17T09:53:52;69279.84;;;18.92;72.59
36354;BME280;22383;51.114;13.666;2022-07-17T09:56:21;69324.16;;;19.30;73.71
36354;BME280;22383;51.114;13.666;2022-07-17T09:59:00;69342.03;;;19.48;67.90
36354;BME280;22383;51.114;13.666;2022-07-17T10:01:30;69316.94;;;19.25;66.83
36354;BME280;22383;51.114;13.666;2022-07-17T10:04:01;69329.47;;;19.37;71.60
36354;BME280;22383;51.114;13.666;2022-07-17T10:06:29;69365.84;;;19.67;67.38
36354;BME280;22383;51.114;13.666;2022-07-17T10:08:57;69398.97;;;19.97;67.38
36354;BME280;22383;51.114;13.666;2022-07-17T10:11:28;69419.09;;;20.17;66.44
36354;BME280;22383;51.114;13.666;2022-07-17T10:14:02;69382.59;;;19.85;63.97
36354;BME280;22383;51.114;13.666;2022-07-17T10:16:32;69392.28;;;19.93;66.81
36354;BME280;22383;51.114;13.666;2022-07-17T10:19:01;69415.50;;;20.12;64.80
36354;BME280;22383;51.114;13.666;2022-07-17T10:21:31;69456.06;;;20.48;63.04
36354;BME280;22383;51.114;13.666;2022-07-17T10:26:33;69467.66;;;20.61;58.42
36354;BME280;22383;51.114;13.666;2022-07-17T10:29:00;69482.94;;;20.72;61.36
36354;BME280;22383;51.114;13.666;2022-07-17T10:31:29;69476.63;;;20.67;58.52
36354;BME280;22383;51.114;13.666;2022-07-17T10:33:59;69499.66;;;20.90;61.25
36354;BME280;22383;51.114;13.666;2022-07-17T10:36:42;69495.66;;;20.86;56.65
36354;BME280;22383;51.114;13.666;2022-07-17T10:39:20;69477.22;;;20.67;52.41
36354;BME280;22383;51.114;13.666;2022-07-17T10:41:57;69470.91;;;20.62;54.97
36354;BME280;22383;51.114;13.666;2022-07-17T10:44:29;69492.47;;;20.78;54.58
36354;BME280;22383;51.114;13.666;2022-07-17T10:46:57;69537.78;;;21.22;53.68
36354;BME280;22383;51.114;13.666;2022-07-17T10:49:25;69542.91;;;21.26;56.32
36354;BME280;22383;51.114;13.666;2022-07-17T10:51:53;69556.94;;;21.44;53.73
36354;BME280;22383;51.114;13.666;2022-07-17T10:54:33;69545.91;;;21.31;56.22
36354;BME280;22383;51.114;13.666;2022-07-17T10:57:02;69609.94;;;21.89;57.16
36354;BME280;22383;51.114;13.666;2022-07-17T10:59:30;69643.53;;;22.17;51.05
36354;BME280;22383;51.114;13.666;2022-07-17T11:01:57;69614.13;;;21.95;49.39
36354;BME280;22383;51.114;13.666;2022-07-17T11:04:36;69599.66;;;21.80;49.11
36354;BME280;22383;51.114;13.666;2022-07-17T11:07:10;69586.38;;;21.65;50.17
36354;BME280;22383;51.114;13.666;2022-07-17T11:09:46;69592.09;;;21.70;48.26
36354;BME280;22383;51.114;13.666;2022-07-17T11:12:14;69607.09;;;21.86;46.48
36354;BME280;22383;51.114;13.666;2022-07-17T11:14:43;69624.09;;;21.99;50.02
36354;BME280;22383;51.114;13.666;2022-07-17T11:17:11;69560.41;;;21.47;46.26
36354;BME280;22383;51.114;13.666;2022-07-17T11:19:44;69532.22;;;21.19;48.41
36354;BME280;22383;51.114;13.666;2022-07-17T11:22:12;69536.56;;;21.45;49.99
36354;BME280;22383;51.114;13.666;2022-07-17T11:24:43;69560.78;;;21.45;50.57
36354;BME280;22383;51.114;13.666;2022-07-17T11:27:31;69553.91;;;21.39;49.35
36354;BME280;22383;51.114;13.666;2022-07-17T11:30:01;69530.50;;;21.18;47.01
36354;BME280;22383;51.114;13.666;2022-07-17T11:32:36;69517.78;;;21.04;47.70
36354;BME280;22383;51.114;13.666;2022-07-17T11:35:18;69535.22;;;21.24;50.19
36354;BME280;22383;51.114;13.666;2022-07-17T11:38:05;69577.97;;;21.60;48.09
36354;BME280;22383;51.114;13.666;2022-07-17T11:40:33;69625.94;;;22.03;49.84
36354;BME280;22383;51.114;13.666;2022-07-17T11:43:01;69652.84;;;22.27;47.85
36354;BME280;22383;51.114;13.666;2022-07-17T11:45:29;69682.56;;;22.54;48.33
36354;BME280;22383;51.114;13.666;2022-07-17T11:48:01;69686.56;;;22.58;46.23
36354;BME280;22383;51.114;13.666;2022-07-17T11:50:28;69676.13;;;22.46;46.72
36354;BME280;22383;51.114;13.666;2022-07-17T11:53:03;69666.25;;;22.35;44.51
36354;BME280;22383;51.114;13.666;2022-07-17T11:55:38;69623.50;;;21.99;43.61
36354;BME280;22383;51.114;13.666;2022-07-17T11:58:07;69633.38;;;22.10;44.83
36354;BME280;22383;51.114;13.666;2022-07-17T12:00:35;69667.13;;;22.40;45.60
36354;BME280;22383;51.114;13.666;2022-07-17T12:03:05;69693.28;;;22.61;44.90
36354;BME280;22383;51.114;13.666;2022-07-17T12:05:35;69676.28;;;22.49;43.43
36354;BME280;22383;51.114;13.666;2022-07-17T12:08:07;69644.81;;;22.20;43.46
36354;BME280;22383;51.114;13.666;2022-07-17T12:10:35;69650.53;;;22.25;43.73
36354;BME280;22383;51.114;13.666;2022-07-17T12:13:05;69636.59;;;22.18;44.56
36354;BME280;22383;51.114;13.666;2022-07-17T12:15:41;69632.41;;;22.12;44.35
36354;BME280;22383;51.114;13.666;2022-07-17T12:18:27;69646.53;;;22.22;42.15
36354;BME280;22383;51.114;13.666;2022-07-17T12:20:58;69654.97;;;22.27;45.21
36354;BME280;22383;51.114;13.666;2022-07-17T12:23:29;69683.16;;;22.55;44.29
36354;BME280;22383;51.114;13.666;2022-07-17T12:26:07;69705.13;;;22.70;41.66
36354;BME280;22383;51.114;13.666;2022-07-17T12:28:35;69695.31;;;22.68;44.07
36354;BME280;22383;51.114;13.666;2022-07-17T12:31:03;69718.06;;;22.86;44.67
36354;BME280;22383;51.114;13.666;2022-07-17T12:33:31;69741.53;;;23.07;44.12
36354;BME280;22383;51.114;13.666;2022-07-17T12:35:58;69748.94;;;23.14;43.32
36354;BME280;22383;51.114;13.666;2022-07-17T12:38:25;69719.34;;;22.90;41.79
36354;BME280;22383;51.114;13.666;2022-07-17T12:40:53;69698.44;;;22.66;41.01
36354;BME280;22383;51.114;13.666;2022-07-17T12:43:20;69674.91;;;22.69;38.46
36354;BME280;22383;51.114;13.666;2022-07-17T12:45:47;69702.59;;;22.72;39.79
36354;BME280;22383;51.114;13.666;2022-07-17T12:48:15;69732.91;;;22.99;41.86
36354;BME280;22383;51.114;13.666;2022-07-17T12:50:42;69746.09;;;23.11;39.87
36354;BME280;22383;51.114;13.666;2022-07-17T12:53:09;69753.38;;;23.15;39.91
36354;BME280;22383;51.114;13.666;2022-07-17T12:55:37;69766.53;;;23.27;41.19
36354;BME280;22383;51.114;13.666;2022-07-17T12:58:05;69759.66;;;23.21;41.58
36354;BME280;22383;51.114;13.666;2022-07-17T13:00:33;69762.09;;;23.26;41.32
36354;BME280;22383;51.114;13.666;2022-07-17T13:03:02;69761.38;;;23.22;40.99
36354;BME280;22383;51.114;13.666;2022-07-17T13:05:30;69730.06;;;22.97;40.65
36354;BME280;22383;51.114;13.666;2022-07-17T13:07:57;69720.75;;;22.86;42.11